sensor_id;sensor_type;location;lat;lon;timestamp;pressure;altitude;pressure_sealevel;temperature;humidity
11487;BME280;10510;47.942;9.442;2023-05-02T00:01:27;94702.28;;;7.61;100.00
11487;BME280;10510;47.942;9.442;2023-05-02T00:03:28;94700.00;;;7.58;100.00
11487;BME280;10510;47.942;9.442;2023-05-02T00:05:28;94698.38;;;7.57;100.00
11487;BME280;10510;47.942;9.442;2023-05-02T00:07:29;94699.34;;;7.56;100.00
11487;BME280;10510;47.942;9.442;2023-05-02T00:09:29;94698.72;;;7.54;100.00
11487;BME280;10510;47.942;9.442;2023-05-02T00:11:29;94704.06;;;7.52;100.00
11487;BME280;10510;47.942;9.442;2023-05-02T00:13:30;94704.25;;;7.50;100.00
11487;BME280;10510;47.942;9.442;2023-05-02T00:15:30;94695.47;;;7.51;100.00
11487;BME280;10510;47.942;9.442;2023-05-02T00:17:30;94694.00;;;7.49;100.00
11487;BME280;10510;47.942;9.442;2023-05-02T00:19:30;94693.31;;;7.47;100.00
11487;BME280;10510;47.942;9.442;2023-05-02T00:21:31;94694.97;;;7.48;100.00
11487;BME280;10510;47.942;9.442;2023-05-02T00:23:32;94690.91;;;7.45;100.00
11487;BME280;10510;47.942;9.442;2023-05-02T00:25:32;94687.50;;;7.45;100.00
11487;BME280;10510;47.942;9.442;2023-05-02T00:27:32;94682.44;;;7.43;100.00
11487;BME280;10510;47.942;9.442;2023-05-02T00:29:33;94687.81;;;7.42;100.00
11487;BME280;10510;47.942;9.442;2023-05-02T00:31:33;94684.56;;;7.40;100.00
11487;BME280;10510;47.942;9.442;2023-05-02T00:33:34;94688.97;;;7.39;100.00
11487;BME280;10510;47.942;9.442;2023-05-02T00:35:35;94684.09;;;7.36;100.00
11487;BME280;10510;47.942;9.442;2023-05-02T00:37:35;94684.09;;;7.36;100.00
11487;BME280;10510;47.942;9.442;2023-05-02T00:39:35;94687.50;;;7.37;100.00
11487;BME280;10510;47.942;9.442;2023-05-02T00:41:35;94688.47;;;7.36;100.00
11487;BME280;10510;47.942;9.442;2023-05-02T00:43:36;94684.91;;;7.37;100.00
11487;BME280;10510;47.942;9.442;2023-05-02T00:45:39;94690.75;;;7.39;100.00
11487;BME280;10510;47.942;9.442;2023-05-02T00:47:41;94683.75;;;7.39;100.00
11487;BME280;10510;47.942;9.442;2023-05-02T00:49:41;94688.78;;;7.41;100.00
11487;BME280;10510;47.942;9.442;2023-05-02T00:51:41;94690.75;;;7.39;100.00
11487;BME280;10510;47.942;9.442;2023-05-02T00:53:43;94681.97;;;7.40;100.00
11487;BME280;10510;47.942;9.442;2023-05-02T00:55:43;94682.94;;;7.39;100.00
11487;BME280;10510;47.942;9.442;2023-05-02T00:57:44;94680.97;;;7.41;100.00
11487;BME280;10510;47.942;9.442;2023-05-02T00:59:44;94680.03;;;7.42;100.00
11487;BME280;10510;47.942;9.442;2023-05-02T01:04:36;94687.16;;;7.40;100.00
11487;BME280;10510;47.942;9.442;2023-05-02T01:06:43;94685.56;;;7.39;100.00
11487;BME280;10510;47.942;9.442;2023-05-02T01:08:54;94684.91;;;7.37;100.00
11487;BME280;10510;47.942;9.442;2023-05-02T01:11:10;94696.28;;;7.36;100.00
11487;BME280;10510;47.942;9.442;2023-05-02T01:13:21;94687.81;;;7.34;100.00
11487;BME280;10510;47.942;9.442;2023-05-02T01:15:24;94687.16;;;7.32;100.00
11487;BME280;10510;47.942;9.442;2023-05-02T01:17:27;94693.34;;;7.31;100.00
11487;BME280;10510;47.942;9.442;2023-05-02T01:19:38;94692.06;;;7.26;100.00
11487;BME280;10510;47.942;9.442;2023-05-02T01:21:40;94685.53;;;7.22;100.00
11487;BME280;10510;47.942;9.442;2023-05-02T01:24:01;94691.84;;;7.20;100.00
11487;BME280;10510;47.942;9.442;2023-05-02T01:26:25;94693.97;;;7.16;100.00
11487;BME280;10510;47.942;9.442;2023-05-02T01:30:47;94694.44;;;7.12;100.00
11487;BME280;10510;47.942;9.442;2023-05-02T01:32:51;94693.00;;;7.09;100.00
11487;BME280;10510;47.942;9.442;2023-05-02T01:34:55;94692.34;;;7.07;100.00
11487;BME280;10510;47.942;9.442;2023-05-02T01:36:57;94696.06;;;7.04;100.00
11487;BME280;10510;47.942;9.442;2023-05-02T01:39:00;94693.78;;;7.01;100.00
11487;BME280;10510;47.942;9.442;2023-05-02T01:41:03;94696.53;;;7.00;100.00
11487;BME280;10510;47.942;9.442;2023-05-02T01:43:04;94698.50;;;6.98;100.00
11487;BME280;10510;47.942;9.442;2023-05-02T01:45:07;94701.91;;;6.98;100.00
11487;BME280;10510;47.942;9.442;2023-05-02T01:47:09;94702.88;;;6.97;100.00
11487;BME280;10510;47.942;9.442;2023-05-02T01:49:09;94705.63;;;6.96;100.00
11487;BME280;10510;47.942;9.442;2023-05-02T01:51:10;94698.81;;;6.95;100.00
11487;BME280;10510;47.942;9.442;2023-05-02T01:53:13;94703.03;;;6.96;100.00
11487;BME280;10510;47.942;9.442;2023-05-02T01:55:15;94710.69;;;6.97;100.00
11487;BME280;10510;47.942;9.442;2023-05-02T01:57:17;94712.44;;;6.97;100.00
11487;BME280;10510;47.942;9.442;2023-05-02T01:59:19;94713.91;;;6.99;100.00
11487;BME280;10510;47.942;9.442;2023-05-02T02:01:23;94715.72;;;6.99;100.00
11487;BME280;10510;47.942;9.442;2023-05-02T02:03:28;94710.50;;;6.99;100.00
11487;BME280;10510;47.942;9.442;2023-05-02T02:05:30;94710.03;;;6.95;100.00
11487;BME280;10510;47.942;9.442;2023-05-02T02:07:31;94719.59;;;6.95;100.00
11487;BME280;10510;47.942;9.442;2023-05-02T02:09:31;94717.81;;;6.95;100.00
11487;BME280;10510;47.942;9.442;2023-05-02T02:11:51;94721.06;;;6.97;100.00
11487;BME280;10510;47.942;9.442;2023-05-02T02:13:59;94720.91;;;6.99;100.00
11487;BME280;10510;47.942;9.442;2023-05-02T02:16:03;94726.75;;;7.01;100.00
11487;BME280;10510;47.942;9.442;2023-05-02T02:18:09;94720.59;;;7.02;100.00
11487;BME280;10510;47.942;9.442;2023-05-02T02:20:12;94719.63;;;7.03;100.00
11487;BME280;10510;47.942;9.442;2023-05-02T02:22:16;94721.91;;;7.06;100.00
11487;BME280;10510;47.942;9.442;2023-05-02T02:24:20;94725.16;;;7.08;100.00
11487;BME280;10510;47.942;9.442;2023-05-02T02:26:22;94720.59;;;7.10;100.00
11487;BME280;10510;47.942;9.442;2023-05-02T02:28:22;94720.28;;;7.13;100.00
11487;BME280;10510;47.942;9.442;2023-05-02T02:30:22;94721.75;;;7.16;100.00
11487;BME280;10510;47.942;9.442;2023-05-02T02:32:23;94723.06;;;7.20;100.00
11487;BME280;10510;47.942;9.442;2023-05-02T02:34:23;94722.91;;;7.21;100.00
11487;BME280;10510;47.942;9.442;2023-05-02T02:36:28;94720.78;;;7.25;100.00
11487;BME280;10510;47.942;9.442;2023-05-02T02:38:37;94720.66;;;7.26;100.00
11487;BME280;10510;47.942;9.442;2023-05-02T02:40:48;94718.69;;;7.28;100.00
11487;BME280;10510;47.942;9.442;2023-05-02T02:43:03;94723.56;;;7.32;100.00
11487;BME280;10510;47.942;9.442;2023-05-02T02:47:25;94725.19;;;7.33;100.00
11487;BME280;10510;47.942;9.442;2023-05-02T02:54:45;94728.78;;;7.40;100.00
11487;BME280;10510;47.942;9.442;2023-05-02T02:56:48;94726.97;;;7.40;100.00
11487;BME280;10510;47.942;9.442;2023-05-02T02:58:59;94733.66;;;7.43;100.00
11487;BME280;10510;47.942;9.442;2023-05-02T03:01:04;94735.91;;;7.46;100.00
11487;BME280;10510;47.942;9.442;2023-05-02T03:03:06;94735.59;;;7.49;100.00
11487;BME280;10510;47.942;9.442;2023-05-02T03:05:08;94736.25;;;7.51;100.00
11487;BME280;10510;47.942;9.442;2023-05-02T03:07:09;94734.13;;;7.55;100.00
11487;BME280;10510;47.942;9.442;2023-05-02T03:09:16;94741.78;;;7.56;100.00
11487;BME280;10510;47.942;9.442;2023-05-02T03:11:19;94733.00;;;7.57;100.00
11487;BME280;10510;47.942;9.442;2023-05-02T03:13:19;94739.69;;;7.60;100.00
11487;BME280;10510;47.942;9.442;2023-05-02T03:17:49;94736.75;;;7.63;100.00
11487;BME280;10510;47.942;9.442;2023-05-02T03:19:49;94739.16;;;7.64;100.00
11487;BME280;10510;47.942;9.442;2023-05-02T03:21:49;94742.44;;;7.66;100.00
11487;BME280;10510;47.942;9.442;2023-05-02T03:23:50;94743.25;;;7.67;100.00
11487;BME280;10510;47.942;9.442;2023-05-02T03:25:50;94742.28;;;7.68;100.00
11487;BME280;10510;47.942;9.442;2023-05-02T03:27:50;94744.72;;;7.69;100.00
11487;BME280;10510;47.942;9.442;2023-05-02T03:29:51;94747.97;;;7.71;100.00
11487;BME280;10510;47.942;9.442;2023-05-02T03:31:51;94756.44;;;7.73;100.00
11487;BME280;10510;47.942;9.442;2023-05-02T03:33:51;94753.66;;;7.75;100.00
11487;BME280;10510;47.942;9.442;2023-05-02T03:35:52;94749.91;;;7.78;100.00
11487;BME280;10510;47.942;9.442;2023-05-02T03:37:52;94759.00;;;7.82;100.00
11487;BME280;10510;47.942;9.442;2023-05-02T03:39:52;94753.81;;;7.82;100.00
11487;BME280;10510;47.942;9.442;2023-05-02T03:41:53;94759.81;;;7.82;100.00
11487;BME280;10510;47.942;9.442;2023-05-02T03:43:53;94757.88;;;7.84;100.00
11487;BME280;10510;47.942;9.442;2023-05-02T03:45:53;94752.53;;;7.86;100.00
11487;BME280;10510;47.942;9.442;2023-05-02T03:47:53;94759.34;;;7.87;100.00
11487;BME280;10510;47.942;9.442;2023-05-02T03:49:54;94762.59;;;7.89;100.00
11487;BME280;10510;47.942;9.442;2023-05-02T03:51:54;94756.59;;;7.88;100.00
11487;BME280;10510;47.942;9.442;2023-05-02T03:53:54;94761.78;;;7.88;100.00
11487;BME280;10510;47.942;9.442;2023-05-02T03:55:56;94760.97;;;7.88;100.00
11487;BME280;10510;47.942;9.442;2023-05-02T03:57:56;94767.97;;;7.87;100.00
11487;BME280;10510;47.942;9.442;2023-05-02T03:59:56;94766.16;;;7.88;100.00
11487;BME280;10510;47.942;9.442;2023-05-02T04:01:57;94764.53;;;7.87;100.00
11487;BME280;10510;47.942;9.442;2023-05-02T04:03:58;94771.53;;;7.86;100.00
11487;BME280;10510;47.942;9.442;2023-05-02T04:05:58;94766.34;;;7.86;100.00
11487;BME280;10510;47.942;9.442;2023-05-02T04:08:00;94775.13;;;7.85;100.00
11487;BME280;10510;47.942;9.442;2023-05-02T04:10:00;94774.47;;;7.83;100.00
11487;BME280;10510;47.942;9.442;2023-05-02T04:12:00;94780.81;;;7.81;100.00
11487;BME280;10510;47.942;9.442;2023-05-02T04:14:01;94788.63;;;7.81;100.00
11487;BME280;10510;47.942;9.442;2023-05-02T04:16:01;94787.16;;;7.78;100.00
11487;BME280;10510;47.942;9.442;2023-05-02T04:18:01;94783.56;;;7.79;100.00
11487;BME280;10510;47.942;9.442;2023-05-02T04:20:02;94789.75;;;7.78;100.00
11487;BME280;10510;47.942;9.442;2023-05-02T04:22:03;94804.56;;;7.78;100.00
11487;BME280;10510;47.942;9.442;2023-05-02T04:24:04;94792.53;;;7.77;100.00
11487;BME280;10510;47.942;9.442;2023-05-02T04:26:04;94798.38;;;7.79;100.00
11487;BME280;10510;47.942;9.442;2023-05-02T04:28:05;94803.44;;;7.80;100.00
11487;BME280;10510;47.942;9.442;2023-05-02T04:30:06;94805.03;;;7.81;100.00
11487;BME280;10510;47.942;9.442;2023-05-02T04:32:06;94811.06;;;7.82;100.00
11487;BME280;10510;47.942;9.442;2023-05-02T04:34:07;94810.91;;;7.83;100.00
11487;BME280;10510;47.942;9.442;2023-05-02T04:36:08;94811.56;;;7.85;100.00
11487;BME280;10510;47.942;9.442;2023-05-02T04:38:09;94801.78;;;7.87;100.00
11487;BME280;10510;47.942;9.442;2023-05-02T04:40:10;94811.06;;;7.90;100.00
11487;BME280;10510;47.942;9.442;2023-05-02T04:42:11;94816.94;;;7.92;100.00
11487;BME280;10510;47.942;9.442;2023-05-02T04:44:11;94818.53;;;7.93;100.00
11487;BME280;10510;47.942;9.442;2023-05-02T04:46:12;94820.16;;;7.94;100.00
11487;BME280;10510;47.942;9.442;2023-05-02T04:48:12;94824.41;;;7.95;100.00
11487;BME280;10510;47.942;9.442;2023-05-02T04:50:13;94823.91;;;8.00;100.00
11487;BME280;10510;47.942;9.442;2023-05-02T04:52:13;94819.22;;;8.03;100.00
11487;BME280;10510;47.942;9.442;2023-05-02T04:54:13;94822.44;;;8.05;100.00
11487;BME280;10510;47.942;9.442;2023-05-02T04:56:14;94825.84;;;8.06;100.00
11487;BME280;10510;47.942;9.442;2023-05-02T04:58:15;94825.03;;;8.05;100.00
11487;BME280;10510;47.942;9.442;2023-05-02T05:00:15;94831.06;;;8.06;100.00
11487;BME280;10510;47.942;9.442;2023-05-02T05:02:15;94831.91;;;8.06;100.00
11487;BME280;10510;47.942;9.442;2023-05-02T05:04:16;94836.78;;;8.09;100.00
11487;BME280;10510;47.942;9.442;2023-05-02T05:06:16;94847.19;;;8.09;100.00
11487;BME280;10510;47.942;9.442;2023-05-02T05:08:16;94850.59;;;8.10;100.00
11487;BME280;10510;47.942;9.442;2023-05-02T05:10:17;94853.03;;;8.11;100.00
11487;BME280;10510;47.942;9.442;2023-05-02T05:12:17;94858.91;;;8.13;100.00
11487;BME280;10510;47.942;9.442;2023-05-02T05:14:18;94851.75;;;8.15;100.00
11487;BME280;10510;47.942;9.442;2023-05-02T05:16:19;94850.75;;;8.16;100.00
11487;BME280;10510;47.942;9.442;2023-05-02T05:18:19;94854.84;;;8.19;100.00
11487;BME280;10510;47.942;9.442;2023-05-02T05:20:20;94855.50;;;8.21;100.00
11487;BME280;10510;47.942;9.442;2023-05-02T05:22:20;94856.13;;;8.23;100.00
11487;BME280;10510;47.942;9.442;2023-05-02T05:24:21;94852.72;;;8.23;100.00
11487;BME280;10510;47.942;9.442;2023-05-02T05:26:21;94854.97;;;8.26;100.00
11487;BME280;10510;47.942;9.442;2023-05-02T05:28:22;94851.41;;;8.27;100.00
11487;BME280;10510;47.942;9.442;2023-05-02T05:30:23;94867.38;;;8.24;100.00
11487;BME280;10510;47.942;9.442;2023-05-02T05:32:24;94874.03;;;8.26;100.00
11487;BME280;10510;47.942;9.442;2023-05-02T05:34:24;94875.47;;;8.29;100.00
11487;BME280;10510;47.942;9.442;2023-05-02T05:36:25;94873.69;;;8.29;100.00
11487;BME280;10510;47.942;9.442;2023-05-02T05:38:26;94880.38;;;8.32;100.00
11487;BME280;10510;47.942;9.442;2023-05-02T05:40:27;94875.00;;;8.33;100.00
11487;BME280;10510;47.942;9.442;2023-05-02T05:42:27;94879.41;;;8.33;100.00
11487;BME280;10510;47.942;9.442;2023-05-02T05:44:27;94888.03;;;8.33;100.00
11487;BME280;10510;47.942;9.442;2023-05-02T05:46:27;94881.84;;;8.34;100.00
11487;BME280;10510;47.942;9.442;2023-05-02T05:48:28;94889.31;;;8.37;100.00
11487;BME280;10510;47.942;9.442;2023-05-02T05:50:28;94883.81;;;8.40;100.00
11487;BME280;10510;47.942;9.442;2023-05-02T05:52:28;94880.72;;;8.45;100.00
11487;BME280;10510;47.942;9.442;2023-05-02T05:54:29;94890.81;;;8.48;100.00
11487;BME280;10510;47.942;9.442;2023-05-02T05:56:29;94889.69;;;8.51;100.00
11487;BME280;10510;47.942;9.442;2023-05-02T05:58:29;94881.34;;;8.55;100.00
11487;BME280;10510;47.942;9.442;2023-05-02T06:00:30;94887.88;;;8.59;100.00
11487;BME280;10510;47.942;9.442;2023-05-02T06:02:31;94887.72;;;8.61;100.00
11487;BME280;10510;47.942;9.442;2023-05-02T06:04:31;94886.56;;;8.63;100.00
11487;BME280;10510;47.942;9.442;2023-05-02T06:06:32;94890.63;;;8.66;100.00
11487;BME280;10510;47.942;9.442;2023-05-02T06:08:32;94885.75;;;8.71;100.00
11487;BME280;10510;47.942;9.442;2023-05-02T06:10:33;94886.56;;;8.72;100.00
11487;BME280;10510;47.942;9.442;2023-05-02T06:12:34;94890.31;;;8.69;100.00
11487;BME280;10510;47.942;9.442;2023-05-02T06:14:34;94899.91;;;8.77;100.00
11487;BME280;10510;47.942;9.442;2023-05-02T06:16:34;94898.59;;;8.81;100.00
11487;BME280;10510;47.942;9.442;2023-05-02T06:18:35;94901.19;;;8.81;100.00
11487;BME280;10510;47.942;9.442;2023-05-02T06:20:35;94907.22;;;8.81;100.00
11487;BME280;10510;47.942;9.442;2023-05-02T06:22:36;94906.72;;;8.86;100.00
11487;BME280;10510;47.942;9.442;2023-05-02T06:24:36;94917.16;;;8.94;100.00
11487;BME280;10510;47.942;9.442;2023-05-02T06:26:36;94910.44;;;9.00;100.00
11487;BME280;10510;47.942;9.442;2023-05-02T06:28:37;94913.22;;;9.06;100.00
11487;BME280;10510;47.942;9.442;2023-05-02T06:30:37;94916.44;;;9.08;100.00
11487;BME280;10510;47.942;9.442;2023-05-02T06:32:37;94908.28;;;9.12;100.00
11487;BME280;10510;47.942;9.442;2023-05-02T06:34:37;94917.06;;;9.19;100.00
11487;BME280;10510;47.942;9.442;2023-05-02T06:36:38;94920.16;;;9.22;100.00
11487;BME280;10510;47.942;9.442;2023-05-02T06:38:38;94920.81;;;9.24;100.00
11487;BME280;10510;47.942;9.442;2023-05-02T06:40:38;94927.50;;;9.27;100.00
11487;BME280;10510;47.942;9.442;2023-05-02T06:42:44;94922.75;;;9.30;100.00
11487;BME280;10510;47.942;9.442;2023-05-02T06:44:44;94928.09;;;9.37;100.00
11487;BME280;10510;47.942;9.442;2023-05-02T06:46:44;94923.19;;;9.42;100.00
11487;BME280;10510;47.942;9.442;2023-05-02T06:48:44;94929.69;;;9.46;100.00
11487;BME280;10510;47.942;9.442;2023-05-02T06:50:45;94932.94;;;9.48;100.00
11487;BME280;10510;47.942;9.442;2023-05-02T06:52:45;94940.44;;;9.51;100.00
11487;BME280;10510;47.942;9.442;2023-05-02T06:54:45;94945.50;;;9.53;100.00
11487;BME280;10510;47.942;9.442;2023-05-02T06:56:46;94937.81;;;9.51;100.00
11487;BME280;10510;47.942;9.442;2023-05-02T06:58:46;94935.06;;;9.53;100.00
11487;BME280;10510;47.942;9.442;2023-05-02T07:00:46;94938.47;;;9.53;100.00
11487;BME280;10510;47.942;9.442;2023-05-02T07:02:48;94937.69;;;9.53;100.00
11487;BME280;10510;47.942;9.442;2023-05-02T07:04:48;94937.97;;;9.58;100.00
11487;BME280;10510;47.942;9.442;2023-05-02T07:06:49;94946.75;;;9.65;100.00
11487;BME280;10510;47.942;9.442;2023-05-02T07:08:49;94943.63;;;9.70;100.00
11487;BME280;10510;47.942;9.442;2023-05-02T07:10:50;94944.56;;;9.77;100.00
11487;BME280;10510;47.942;9.442;2023-05-02T07:12:50;94948.81;;;9.78;100.00
11487;BME280;10510;47.942;9.442;2023-05-02T07:14:51;94949.44;;;9.80;100.00
11487;BME280;10510;47.942;9.442;2023-05-02T07:16:52;94949.41;;;9.88;100.00
11487;BME280;10510;47.942;9.442;2023-05-02T07:18:52;94954.91;;;9.93;100.00
11487;BME280;10510;47.942;9.442;2023-05-02T07:20:52;94950.16;;;9.97;100.00
11487;BME280;10510;47.942;9.442;2023-05-02T07:22:54;94955.53;;;10.04;100.00
11487;BME280;10510;47.942;9.442;2023-05-02T07:24:59;94961.03;;;10.09;100.00
11487;BME280;10510;47.942;9.442;2023-05-02T07:27:00;94959.19;;;10.17;100.00
11487;BME280;10510;47.942;9.442;2023-05-02T07:29:02;94960.94;;;10.25;100.00
11487;BME280;10510;47.942;9.442;2023-05-02T07:31:05;94963.09;;;10.30;100.00
11487;BME280;10510;47.942;9.442;2023-05-02T07:33:05;94967.31;;;10.31;100.00
11487;BME280;10510;47.942;9.442;2023-05-02T07:35:06;94966.50;;;10.30;100.00
11487;BME280;10510;47.942;9.442;2023-05-02T07:37:07;94969.56;;;10.34;100.00
11487;BME280;10510;47.942;9.442;2023-05-02T07:39:07;94968.06;;;10.39;100.00
11487;BME280;10510;47.942;9.442;2023-05-02T07:41:07;94977.38;;;10.42;100.00
11487;BME280;10510;47.942;9.442;2023-05-02T07:43:08;94976.22;;;10.44;100.00
11487;BME280;10510;47.942;9.442;2023-05-02T07:45:09;94975.84;;;10.48;100.00
11487;BME280;10510;47.942;9.442;2023-05-02T07:47:09;94980.09;;;10.49;100.00
11487;BME280;10510;47.942;9.442;2023-05-02T07:49:10;94975.50;;;10.51;100.00
11487;BME280;10510;47.942;9.442;2023-05-02T07:51:10;94966.50;;;10.53;100.00
11487;BME280;10510;47.942;9.442;2023-05-02T07:53:11;94974.22;;;10.46;100.00
11487;BME280;10510;47.942;9.442;2023-05-02T07:55:11;94973.94;;;10.41;100.00
11487;BME280;10510;47.942;9.442;2023-05-02T07:57:11;94971.94;;;10.43;100.00
11487;BME280;10510;47.942;9.442;2023-05-02T07:59:12;94973.25;;;10.48;100.00
11487;BME280;10510;47.942;9.442;2023-05-02T08:01:12;94978.75;;;10.53;100.00
11487;BME280;10510;47.942;9.442;2023-05-02T08:03:13;94979.38;;;10.55;100.00
11487;BME280;10510;47.942;9.442;2023-05-02T08:05:13;94981.28;;;10.61;100.00
11487;BME280;10510;47.942;9.442;2023-05-02T08:07:13;94983.06;;;10.68;100.00
11487;BME280;10510;47.942;9.442;2023-05-02T08:09:14;94983.81;;;10.77;100.00
11487;BME280;10510;47.942;9.442;2023-05-02T08:11:14;94986.34;;;10.85;100.00
11487;BME280;10510;47.942;9.442;2023-05-02T08:13:15;94995.25;;;10.91;100.00
11487;BME280;10510;47.942;9.442;2023-05-02T08:15:15;94999.28;;;11.02;100.00
11487;BME280;10510;47.942;9.442;2023-05-02T08:17:16;94994.34;;;11.07;100.00
11487;BME280;10510;47.942;9.442;2023-05-02T08:19:16;94998.75;;;11.06;100.00
11487;BME280;10510;47.942;9.442;2023-05-02T08:21:16;94995.94;;;11.08;100.00
11487;BME280;10510;47.942;9.442;2023-05-02T08:23:16;94997.41;;;11.10;100.00
11487;BME280;10510;47.942;9.442;2023-05-02T08:25:17;95004.00;;;11.06;100.00
11487;BME280;10510;47.942;9.442;2023-05-02T08:27:17;94998.22;;;11.11;100.00
11487;BME280;10510;47.942;9.442;2023-05-02T08:29:17;94990.34;;;11.11;100.00
11487;BME280;10510;47.942;9.442;2023-05-02T08:31:18;94985.94;;;11.11;100.00
11487;BME280;10510;47.942;9.442;2023-05-02T08:33:18;94990.94;;;11.21;100.00
11487;BME280;10510;47.942;9.442;2023-05-02T08:35:18;95000.78;;;11.34;100.00
11487;BME280;10510;47.942;9.442;2023-05-02T08:37:19;95001.59;;;11.49;100.00
11487;BME280;10510;47.942;9.442;2023-05-02T08:39:19;95001.78;;;11.63;100.00
11487;BME280;10510;47.942;9.442;2023-05-02T08:41:21;94997.28;;;11.71;100.00
11487;BME280;10510;47.942;9.442;2023-05-02T08:43:21;95004.16;;;11.87;100.00
11487;BME280;10510;47.942;9.442;2023-05-02T08:45:22;95001.44;;;11.95;100.00
11487;BME280;10510;47.942;9.442;2023-05-02T08:47:24;95009.81;;;12.05;100.00
11487;BME280;10510;47.942;9.442;2023-05-02T08:49:26;95007.91;;;12.14;100.00
11487;BME280;10510;47.942;9.442;2023-05-02T08:51:29;95010.41;;;12.22;100.00
11487;BME280;10510;47.942;9.442;2023-05-02T08:53:33;95014.66;;;12.23;100.00
11487;BME280;10510;47.942;9.442;2023-05-02T08:55:35;95017.28;;;12.23;100.00
11487;BME280;10510;47.942;9.442;2023-05-02T08:57:39;95019.34;;;12.28;100.00
11487;BME280;10510;47.942;9.442;2023-05-02T08:59:41;95015.13;;;12.27;100.00
11487;BME280;10510;47.942;9.442;2023-05-02T09:01:43;95024.16;;;12.24;100.00
11487;BME280;10510;47.942;9.442;2023-05-02T09:03:46;95019.28;;;12.21;100.00
11487;BME280;10510;47.942;9.442;2023-05-02T09:05:52;95024.34;;;12.08;100.00
11487;BME280;10510;47.942;9.442;2023-05-02T09:07:53;95029.06;;;12.13;100.00
11487;BME280;10510;47.942;9.442;2023-05-02T09:09:53;95028.06;;;12.14;100.00
11487;BME280;10510;47.942;9.442;2023-05-02T09:11:53;95027.06;;;12.15;100.00
11487;BME280;10510;47.942;9.442;2023-05-02T09:13:54;95024.97;;;12.25;100.00
11487;BME280;10510;47.942;9.442;2023-05-02T09:16:04;95022.16;;;12.26;100.00
11487;BME280;10510;47.942;9.442;2023-05-02T09:18:05;95021.81;;;12.30;100.00
11487;BME280;10510;47.942;9.442;2023-05-02T09:20:06;95025.19;;;12.45;100.00
11487;BME280;10510;47.942;9.442;2023-05-02T09:22:07;95028.41;;;12.62;100.00
11487;BME280;10510;47.942;9.442;2023-05-02T09:24:21;95022.22;;;12.69;100.00
11487;BME280;10510;47.942;9.442;2023-05-02T09:26:26;95022.91;;;12.78;100.00
11487;BME280;10510;47.942;9.442;2023-05-02T09:30:42;95026.94;;;13.24;100.00
11487;BME280;10510;47.942;9.442;2023-05-02T09:32:46;95039.81;;;13.40;100.00
11487;BME280;10510;47.942;9.442;2023-05-02T09:35:05;95029.22;;;13.61;100.00
11487;BME280;10510;47.942;9.442;2023-05-02T09:37:06;95031.09;;;13.68;100.00
11487;BME280;10510;47.942;9.442;2023-05-02T09:39:14;95030.34;;;13.74;100.00
11487;BME280;10510;47.942;9.442;2023-05-02T09:41:15;95035.81;;;13.79;100.00
11487;BME280;10510;47.942;9.442;2023-05-02T09:43:16;95029.72;;;14.06;100.00
11487;BME280;10510;47.942;9.442;2023-05-02T09:45:22;95031.66;;;14.46;100.00
11487;BME280;10510;47.942;9.442;2023-05-02T09:47:25;95027.53;;;14.65;100.00
11487;BME280;10510;47.942;9.442;2023-05-02T09:49:43;95025.94;;;14.84;100.00
11487;BME280;10510;47.942;9.442;2023-05-02T09:51:48;95027.19;;;14.94;100.00
11487;BME280;10510;47.942;9.442;2023-05-02T09:53:49;95036.47;;;14.90;100.00
11487;BME280;10510;47.942;9.442;2023-05-02T09:55:58;95036.84;;;14.87;100.00
11487;BME280;10510;47.942;9.442;2023-05-02T09:57:59;95036.44;;;14.77;100.00
11487;BME280;10510;47.942;9.442;2023-05-02T10:00:00;95033.59;;;14.65;100.00
11487;BME280;10510;47.942;9.442;2023-05-02T10:02:04;95034.34;;;14.52;100.00
11487;BME280;10510;47.942;9.442;2023-05-02T10:04:12;95034.44;;;14.24;100.00
11487;BME280;10510;47.942;9.442;2023-05-02T10:06:17;95036.94;;;13.98;100.00
11487;BME280;10510;47.942;9.442;2023-05-02T10:08:20;95035.66;;;13.87;100.00
11487;BME280;10510;47.942;9.442;2023-05-02T10:10:20;95032.63;;;13.83;100.00
11487;BME280;10510;47.942;9.442;2023-05-02T10:12:23;95036.44;;;13.81;100.00
11487;BME280;10510;47.942;9.442;2023-05-02T10:14:26;95035.91;;;13.64;100.00
11487;BME280;10510;47.942;9.442;2023-05-02T10:16:28;95035.25;;;13.55;100.00
11487;BME280;10510;47.942;9.442;2023-05-02T10:18:40;95039.03;;;13.46;100.00
11487;BME280;10510;47.942;9.442;2023-05-02T10:20:55;95046.88;;;13.39;100.00
11487;BME280;10510;47.942;9.442;2023-05-02T10:22:59;95042.56;;;13.32;100.00
11487;BME280;10510;47.942;9.442;2023-05-02T10:25:01;95037.31;;;13.32;100.00
11487;BME280;10510;47.942;9.442;2023-05-02T10:27:03;95041.75;;;13.31;100.00
11487;BME280;10510;47.942;9.442;2023-05-02T10:29:03;95037.25;;;13.25;100.00
11487;BME280;10510;47.942;9.442;2023-05-02T10:31:04;95040.53;;;13.27;100.00
11487;BME280;10510;47.942;9.442;2023-05-02T10:33:06;95036.38;;;13.39;100.00
11487;BME280;10510;47.942;9.442;2023-05-02T10:35:06;95032.59;;;13.49;100.00
11487;BME280;10510;47.942;9.442;2023-05-02T10:37:07;95031.44;;;13.58;100.00
11487;BME280;10510;47.942;9.442;2023-05-02T10:39:07;95028.09;;;13.71;100.00
11487;BME280;10510;47.942;9.442;2023-05-02T10:41:17;95030.88;;;13.97;100.00
11487;BME280;10510;47.942;9.442;2023-05-02T10:43:18;95027.47;;;14.03;100.00
11487;BME280;10510;47.942;9.442;2023-05-02T10:45:51;95027.94;;;14.68;100.00
11487;BME280;10510;47.942;9.442;2023-05-02T10:48:11;95030.16;;;14.65;100.00
11487;BME280;10510;47.942;9.442;2023-05-02T10:50:12;95027.94;;;14.75;100.00
11487;BME280;10510;47.942;9.442;2023-05-02T10:52:37;95026.97;;;15.03;100.00
11487;BME280;10510;47.942;9.442;2023-05-02T10:54:37;95026.78;;;15.51;100.00
11487;BME280;10510;47.942;9.442;2023-05-02T10:57:06;95027.38;;;15.39;100.00
11487;BME280;10510;47.942;9.442;2023-05-02T10:59:29;95023.13;;;15.25;100.00
11487;BME280;10510;47.942;9.442;2023-05-02T11:01:33;95021.09;;;15.14;100.00
11487;BME280;10510;47.942;9.442;2023-05-02T11:03:52;95026.78;;;14.97;100.00